Time;durP1;ratioP1;P1;durP2;ratioP2;P2;SDS_P1;SDS_P2;PMS_P1;PMS_P2;Temp;Humidity;BMP_temperature;BMP_pressure;BME280_temperature;BME280_humidity;BME280_pressure;Samples;Min_cycle;Max_cycle;Signal;HPM_P1;HPM_P2
2021/06/23 00:00:25;;;;;;;12.18;7.78;;;16.50;99.90;;;;;;5056719;28;20104;-45
2021/06/23 00:02:50;;;;;;;11.30;7.32;;;16.50;99.90;;;;;;5056988;28;20101;-48
2021/06/23 00:05:16;;;;;;;11.38;7.60;;;16.50;99.90;;;;;;5056286;28;20045;-45
2021/06/23 00:07:43;;;;;;;13.88;7.63;;;16.60;99.90;;;;;;5056859;28;20032;-46
2021/06/23 00:10:09;;;;;;;9.05;7.57;;;16.50;99.90;;;;;;5056870;28;20434;-49
2021/06/23 00:12:34;;;;;;;10.00;7.40;;;16.50;99.90;;;;;;5056695;28;20025;-47
2021/06/23 00:15:00;;;;;;;9.60;7.85;;;16.50;99.90;;;;;;5056076;28;20025;-48
2021/06/23 00:17:29;;;;;;;11.57;7.75;;;16.50;99.90;;;;;;5056406;28;20036;-45
2021/06/23 00:19:54;;;;;;;13.27;7.47;;;16.50;99.90;;;;;;5056492;28;20028;-52
2021/06/23 00:22:20;;;;;;;11.10;6.97;;;16.50;99.90;;;;;;5054152;28;20035;-49
2021/06/23 00:24:46;;;;;;;12.43;7.88;;;16.60;99.90;;;;;;5052613;28;20029;-48
2021/06/23 00:27:11;;;;;;;14.73;7.13;;;16.60;99.90;;;;;;5051841;28;20036;-49
2021/06/23 00:29:37;;;;;;;8.18;7.03;;;16.60;99.90;;;;;;5053178;28;20527;-51
2021/06/23 00:32:03;;;;;;;12.68;7.78;;;16.60;99.90;;;;;;5052892;28;20396;-53
2021/06/23 00:34:30;;;;;;;14.93;6.57;;;16.60;99.90;;;;;;5052310;28;20029;-50
2021/06/23 00:36:56;;;;;;;11.90;6.82;;;16.50;99.90;;;;;;5034909;28;20032;-49
2021/06/23 00:39:23;;;;;;;9.63;7.38;;;16.50;99.90;;;;;;5052847;28;20454;-51
2021/06/23 00:41:48;;;;;;;11.70;6.72;;;16.50;99.90;;;;;;5034867;28;20021;-46
2021/06/23 00:44:15;;;;;;;11.25;7.18;;;16.50;99.90;;;;;;5051941;28;20025;-50
2021/06/23 00:46:42;;;;;;;10.27;6.85;;;16.40;99.90;;;;;;5053270;28;20036;-48
2021/06/23 00:49:08;;;;;;;9.00;6.97;;;16.40;99.90;;;;;;5052916;28;20017;-47
2021/06/23 00:51:34;;;;;;;10.45;7.60;;;16.50;99.90;;;;;;5052879;28;20052;-47
2021/06/23 00:54:00;;;;;;;10.77;6.93;;;16.50;99.90;;;;;;5051933;28;20036;-47
2021/06/23 00:56:33;;;;;;;10.82;6.68;;;16.50;99.90;;;;;;5052693;28;20029;-48
2021/06/23 00:59:00;;;;;;;12.40;6.40;;;16.50;99.90;;;;;;5050916;28;20071;-47
2021/06/23 01:01:26;;;;;;;12.70;6.60;;;16.60;99.90;;;;;;5052345;28;20365;-48
2021/06/23 01:03:53;;;;;;;12.75;5.88;;;16.50;99.90;;;;;;5051657;28;20028;-48
2021/06/23 01:06:19;;;;;;;9.23;7.25;;;16.50;99.90;;;;;;5052292;28;20025;-45
2021/06/23 01:08:45;;;;;;;11.40;6.40;;;16.50;99.90;;;;;;5052434;28;20491;-50
2021/06/23 01:11:10;;;;;;;15.75;6.38;;;16.40;99.90;;;;;;5052298;28;20025;-48
2021/06/23 01:13:49;;;;;;;12.38;6.55;;;16.50;99.90;;;;;;5051787;28;20108;-48
2021/06/23 01:16:17;;;;;;;10.57;6.70;;;16.40;99.90;;;;;;5034605;28;20028;-46
2021/06/23 01:18:44;;;;;;;11.50;7.15;;;16.50;99.90;;;;;;5052150;28;20040;-45
2021/06/23 01:21:10;;;;;;;8.50;6.65;;;16.50;99.90;;;;;;5052148;28;20663;-50
2021/06/23 01:23:36;;;;;;;11.65;7.20;;;16.50;99.90;;;;;;5051581;28;20056;-50
2021/06/23 01:26:01;;;;;;;12.30;7.85;;;16.50;99.90;;;;;;5051937;28;20116;-45
2021/06/23 01:28:27;;;;;;;7.65;6.78;;;16.40;99.90;;;;;;5051740;28;20032;-45
2021/06/23 01:30:56;;;;;;;12.43;7.18;;;16.40;99.90;;;;;;5052349;28;20021;-44
2021/06/23 01:33:24;;;;;;;10.30;6.60;;;16.40;99.90;;;;;;5051613;28;20025;-46
2021/06/23 01:35:50;;;;;;;12.43;7.07;;;16.40;99.90;;;;;;5052588;28;20438;-46
2021/06/23 01:38:16;;;;;;;13.32;7.10;;;16.40;99.90;;;;;;5034304;28;20407;-45
2021/06/23 01:40:42;;;;;;;12.52;7.22;;;16.40;99.90;;;;;;5052101;28;20028;-49
2021/06/23 01:43:09;;;;;;;13.05;6.60;;;16.50;99.90;;;;;;5052087;28;20445;-52
2021/06/23 01:45:35;;;;;;;15.40;8.73;;;16.50;99.90;;;;;;5051205;28;20052;-45
2021/06/23 01:48:01;;;;;;;16.00;6.75;;;16.40;99.90;;;;;;5051639;28;20032;-45
2021/06/23 01:50:27;;;;;;;15.90;6.97;;;16.40;99.90;;;;;;5051738;28;20024;-50
2021/06/23 01:52:52;;;;;;;11.77;6.05;;;16.40;99.90;;;;;;5051793;28;20650;-48
2021/06/23 01:55:27;;;;;;;7.05;6.30;;;16.40;99.90;;;;;;5050873;28;20025;-50
2021/06/23 01:57:59;;;;;;;9.85;6.78;;;16.40;99.90;;;;;;5051598;28;20028;-49
2021/06/23 02:00:46;;;;;;;16.33;6.80;;;16.50;99.90;;;;;;5051442;28;20053;-47
2021/06/23 02:03:17;;;;;;;8.25;6.70;;;16.50;99.90;;;;;;5051591;28;20475;-45
2021/06/23 02:06:03;;;;;;;7.05;5.05;;;16.50;99.90;;;;;;5050901;28;20061;-51
2021/06/23 02:08:38;;;;;;;9.23;5.72;;;16.50;99.90;;;;;;5051371;28;20045;-48
2021/06/23 02:11:21;;;;;;;16.55;6.07;;;16.50;99.90;;;;;;5051237;28;20021;-49
2021/06/23 02:14:06;;;;;;;11.48;6.00;;;16.40;99.90;;;;;;5050408;28;20434;-47
2021/06/23 02:16:33;;;;;;;13.20;5.63;;;16.40;99.90;;;;;;5051211;28;20029;-49
2021/06/23 02:19:04;;;;;;;19.17;6.18;;;16.40;99.90;;;;;;5051380;28;20025;-45
2021/06/23 02:21:31;;;;;;;9.18;5.38;;;16.40;99.90;;;;;;5051005;28;20056;-48
2021/06/23 02:23:58;;;;;;;9.18;5.38;;;16.40;99.90;;;;;;5050145;28;20021;-46
2021/06/23 02:26:25;;;;;;;9.15;5.47;;;16.40;99.90;;;;;;5050774;28;20067;-49
2021/06/23 02:28:51;;;;;;;14.35;5.75;;;16.40;99.90;;;;;;5049461;28;20025;-51
2021/06/23 02:31:17;;;;;;;8.77;5.63;;;16.40;99.90;;;;;;5032928;28;20024;-45
2021/06/23 02:33:46;;;;;;;14.43;5.70;;;16.40;99.90;;;;;;5025355;28;20108;-47
2021/06/23 02:36:12;;;;;;;11.23;5.80;;;16.40;99.90;;;;;;5020137;28;20416;-47
2021/06/23 02:38:39;;;;;;;14.07;5.85;;;16.30;99.90;;;;;;5021924;28;20101;-45
2021/06/23 02:41:04;;;;;;;7.45;4.93;;;16.40;99.90;;;;;;5011044;28;20042;-50
2021/06/23 02:43:30;;;;;;;6.75;4.78;;;16.30;99.90;;;;;;5020383;28;20559;-49
2021/06/23 02:45:57;;;;;;;13.10;6.07;;;16.40;99.90;;;;;;5013726;28;20080;-47
2021/06/23 02:48:25;;;;;;;10.40;5.65;;;16.40;99.90;;;;;;5010785;28;20037;-52
2021/06/23 02:51:22;;;;;;;11.57;6.50;;;16.40;99.90;;;;;;5014311;28;20018;-48
2021/06/23 02:53:49;;;;;;;9.93;5.93;;;16.40;99.90;;;;;;4999399;28;20045;-48
2021/06/23 02:56:16;;;;;;;11.60;5.68;;;16.40;99.90;;;;;;5014404;28;20025;-50
2021/06/23 02:58:42;;;;;;;10.43;5.97;;;16.50;99.90;;;;;;5010775;28;20574;-47
2021/06/23 03:01:11;;;;;;;10.25;5.82;;;16.50;99.90;;;;;;5010662;28;20499;-50
2021/06/23 03:03:37;;;;;;;13.15;5.40;;;16.40;99.90;;;;;;5028433;28;20411;-48
2021/06/23 03:06:03;;;;;;;6.22;5.20;;;16.40;99.90;;;;;;5030169;28;20481;-52
2021/06/23 03:08:29;;;;;;;8.90;5.07;;;16.50;99.90;;;;;;5011503;28;20030;-49
2021/06/23 03:10:56;;;;;;;7.97;5.82;;;16.50;99.90;;;;;;4992725;28;20091;-52
2021/06/23 03:13:21;;;;;;;9.15;5.45;;;16.50;99.90;;;;;;5014876;28;20037;-45
2021/06/23 03:15:47;;;;;;;10.13;5.68;;;16.50;99.90;;;;;;5010998;28;20034;-48
2021/06/23 03:18:13;;;;;;;9.75;6.03;;;16.40;99.90;;;;;;5028859;28;20037;-50
2021/06/23 03:20:38;;;;;;;14.68;6.68;;;16.40;99.90;;;;;;5030283;28;20651;-50
2021/06/23 03:23:05;;;;;;;6.63;5.93;;;16.30;99.90;;;;;;5020107;28;20029;-48
2021/06/23 03:25:31;;;;;;;9.30;6.22;;;16.40;99.90;;;;;;5028604;28;20047;-47
2021/06/23 03:27:59;;;;;;;9.88;6.28;;;16.40;99.90;;;;;;5014985;28;20108;-49
2021/06/23 03:30:26;;;;;;;12.45;5.97;;;16.30;99.90;;;;;;5030370;28;20538;-47
2021/06/23 03:32:52;;;;;;;12.50;6.93;;;16.40;99.90;;;;;;5018786;28;20030;-46
2021/06/23 03:35:22;;;;;;;9.20;6.30;;;16.40;99.90;;;;;;5009758;28;20036;-48
2021/06/23 03:37:49;;;;;;;12.15;7.22;;;16.40;99.90;;;;;;5010920;28;20034;-49
2021/06/23 03:40:15;;;;;;;10.00;6.32;;;16.30;99.90;;;;;;5010907;28;20076;-50
2021/06/23 03:42:42;;;;;;;13.32;6.45;;;16.40;99.90;;;;;;5026300;28;20040;-47
2021/06/23 03:45:08;;;;;;;12.25;6.97;;;16.30;99.90;;;;;;5019054;28;20147;-48
2021/06/23 03:47:34;;;;;;;9.25;5.97;;;16.30;99.90;;;;;;5021706;28;20030;-45
2021/06/23 03:50:00;;;;;;;10.45;5.47;;;16.30;99.90;;;;;;5010217;28;20018;-47
2021/06/23 03:52:25;;;;;;;9.60;7.30;;;16.30;99.90;;;;;;4998687;28;20021;-50
2021/06/23 03:54:51;;;;;;;14.00;6.70;;;16.40;99.90;;;;;;5028781;28;20104;-50
2021/06/23 03:57:17;;;;;;;12.68;6.40;;;16.40;99.90;;;;;;5028329;28;20037;-49
2021/06/23 03:59:42;;;;;;;11.00;6.32;;;16.40;99.90;;;;;;5016127;28;20029;-49
2021/06/23 04:02:08;;;;;;;11.30;6.32;;;16.40;99.90;;;;;;5015253;28;20515;-47
2021/06/23 04:04:33;;;;;;;14.98;6.38;;;16.50;99.90;;;;;;5013424;28;20112;-47
2021/06/23 04:06:59;;;;;;;10.52;6.57;;;16.50;99.90;;;;;;5013792;28;20469;-47
2021/06/23 04:09:24;;;;;;;11.25;6.13;;;16.50;99.90;;;;;;5016210;28;20107;-47
2021/06/23 04:11:50;;;;;;;12.50;6.28;;;16.60;99.90;;;;;;5022941;28;20392;-46
2021/06/23 04:14:16;;;;;;;12.07;6.05;;;16.50;99.90;;;;;;5011353;28;20731;-49
2021/06/23 04:16:41;;;;;;;8.77;6.22;;;16.50;99.90;;;;;;5014300;28;20451;-51
2021/06/23 04:19:07;;;;;;;11.88;5.75;;;16.50;99.90;;;;;;5014366;28;20105;-52
2021/06/23 04:21:32;;;;;;;11.02;5.63;;;16.50;99.90;;;;;;5017235;28;20068;-48
2021/06/23 04:23:58;;;;;;;8.30;6.10;;;16.60;99.90;;;;;;5017131;28;20042;-43
2021/06/23 04:26:24;;;;;;;11.38;6.13;;;16.70;99.90;;;;;;5014934;28;20038;-46
2021/06/23 04:28:49;;;;;;;13.32;6.10;;;16.70;99.90;;;;;;5021346;23;20041;-45
2021/06/23 04:31:15;;;;;;;9.18;5.30;;;16.70;99.90;;;;;;5013504;28;20033;-49
2021/06/23 04:33:40;;;;;;;11.15;6.50;;;16.70;99.90;;;;;;5012895;28;20022;-46
2021/06/23 04:36:06;;;;;;;14.25;6.30;;;16.70;99.90;;;;;;5013257;28;20037;-51
2021/06/23 04:38:31;;;;;;;7.78;5.68;;;16.70;99.90;;;;;;5013206;28;20088;-48
2021/06/23 04:40:57;;;;;;;11.38;5.93;;;16.70;99.90;;;;;;5013421;28;20575;-46
2021/06/23 04:43:22;;;;;;;8.35;5.93;;;16.70;99.90;;;;;;5012945;28;20024;-42
2021/06/23 04:45:48;;;;;;;12.48;6.28;;;16.80;99.90;;;;;;5012202;28;20040;-45
2021/06/23 04:48:14;;;;;;;10.88;6.03;;;16.80;99.90;;;;;;5013054;28;20014;-47
2021/06/23 04:50:39;;;;;;;7.07;5.85;;;16.80;99.90;;;;;;5011905;28;20096;-48
2021/06/23 04:53:05;;;;;;;10.15;6.05;;;16.80;99.90;;;;;;5013005;28;20520;-45
2021/06/23 04:55:31;;;;;;;10.43;5.80;;;16.80;99.90;;;;;;5012119;28;20101;-50
2021/06/23 04:57:56;;;;;;;8.52;5.82;;;16.80;99.90;;;;;;5012768;28;20021;-48
2021/06/23 05:00:22;;;;;;;9.75;6.45;;;16.90;99.90;;;;;;5013038;28;20092;-50
2021/06/23 05:02:47;;;;;;;11.88;6.35;;;16.90;99.90;;;;;;5012758;28;20076;-46
2021/06/23 05:05:13;;;;;;;7.40;6.38;;;16.90;99.90;;;;;;5011957;28;20080;-46
2021/06/23 05:07:38;;;;;;;8.27;6.13;;;16.90;99.90;;;;;;5012609;28;20014;-50
2021/06/23 05:10:05;;;;;;;12.35;6.43;;;16.80;99.90;;;;;;5011869;28;20025;-52
2021/06/23 05:12:30;;;;;;;14.93;6.15;;;16.90;99.90;;;;;;5012690;28;20041;-52
2021/06/23 05:14:57;;;;;;;12.60;7.13;;;16.90;99.90;;;;;;5011902;28;20045;-51
2021/06/23 05:17:23;;;;;;;9.55;6.05;;;16.90;99.90;;;;;;5012444;28;20080;-52
2021/06/23 05:19:48;;;;;;;7.53;5.70;;;16.90;99.90;;;;;;5012508;28;20392;-49
2021/06/23 05:22:14;;;;;;;7.32;5.60;;;16.90;99.90;;;;;;5011500;28;20033;-44
2021/06/23 05:24:41;;;;;;;7.35;6.60;;;16.90;99.90;;;;;;5011716;28;20069;-46
2021/06/23 05:27:08;;;;;;;9.38;6.10;;;17.00;99.90;;;;;;5012223;28;20647;-50
2021/06/23 05:29:33;;;;;;;8.95;6.05;;;17.00;99.90;;;;;;5012297;28;20109;-46
2021/06/23 05:31:59;;;;;;;8.07;5.22;;;17.00;99.90;;;;;;5012189;28;20153;-47
2021/06/23 05:34:25;;;;;;;11.45;6.47;;;17.00;99.90;;;;;;5010257;28;20116;-46
2021/06/23 05:36:50;;;;;;;8.57;6.00;;;17.10;99.90;;;;;;5012284;28;20481;-48
2021/06/23 05:39:16;;;;;;;10.35;6.70;;;17.00;99.90;;;;;;5012240;28;20235;-47
2021/06/23 05:41:42;;;;;;;11.32;6.57;;;17.00;99.90;;;;;;5010089;28;20026;-45
2021/06/23 05:44:07;;;;;;;16.20;6.25;;;17.00;99.90;;;;;;5008196;28;20040;-47
2021/06/23 05:46:33;;;;;;;9.15;6.07;;;17.10;99.90;;;;;;5010523;28;20034;-49
2021/06/23 05:48:59;;;;;;;9.30;6.20;;;17.10;99.90;;;;;;5012209;28;20024;-47
2021/06/23 05:51:24;;;;;;;7.95;5.60;;;17.10;99.90;;;;;;5010356;28;20109;-45
2021/06/23 05:53:50;;;;;;;18.90;6.13;;;17.20;99.90;;;;;;5009970;28;20064;-45
2021/06/23 05:56:15;;;;;;;8.13;6.13;;;17.30;99.90;;;;;;5006417;28;20045;-49
2021/06/23 05:58:41;;;;;;;12.68;5.68;;;17.40;99.90;;;;;;4993223;28;20037;-45
2021/06/23 06:01:06;;;;;;;9.75;5.57;;;17.50;99.90;;;;;;4991945;28;20678;-47
2021/06/23 06:03:33;;;;;;;8.70;5.70;;;17.50;99.90;;;;;;4990948;28;20493;-53
2021/06/23 06:05:59;;;;;;;8.05;5.22;;;17.50;99.90;;;;;;5011480;28;20408;-45
2021/06/23 06:08:25;;;;;;;13.68;7.50;;;17.60;99.90;;;;;;5011861;28;20426;-43
2021/06/23 06:10:51;;;;;;;10.13;6.30;;;17.60;99.90;;;;;;5009845;28;20029;-44
2021/06/23 06:13:17;;;;;;;11.52;5.85;;;17.70;99.90;;;;;;5011112;28;20026;-40
2021/06/23 06:15:42;;;;;;;11.98;6.05;;;17.80;99.90;;;;;;4993756;28;20030;-39
2021/06/23 06:18:08;;;;;;;10.45;5.82;;;17.80;99.90;;;;;;4991545;28;20037;-44
2021/06/23 06:20:35;;;;;;;11.80;6.65;;;17.80;99.90;;;;;;4991787;28;20038;-51
2021/06/23 06:23:00;;;;;;;11.40;5.88;;;17.80;99.90;;;;;;4991684;28;20026;-44
2021/06/23 06:25:26;;;;;;;12.93;6.60;;;17.70;99.90;;;;;;5004363;28;20030;-44
2021/06/23 06:27:52;;;;;;;12.48;6.10;;;17.70;99.90;;;;;;5011055;28;20379;-46
2021/06/23 06:30:19;;;;;;;10.57;6.05;;;17.70;99.90;;;;;;5007853;28;20038;-50
2021/06/23 06:32:45;;;;;;;15.05;6.43;;;17.70;99.90;;;;;;5011131;28;20014;-46
2021/06/23 06:35:11;;;;;;;16.60;6.03;;;17.70;99.90;;;;;;5000192;28;20382;-47
2021/06/23 06:37:36;;;;;;;11.25;5.95;;;17.60;99.90;;;;;;4991554;28;20036;-49
2021/06/23 06:40:03;;;;;;;12.63;6.00;;;17.70;99.90;;;;;;4992458;28;20022;-46
2021/06/23 06:42:28;;;;;;;10.50;5.63;;;17.70;99.90;;;;;;4991221;28;20034;-46
2021/06/23 06:44:54;;;;;;;8.82;6.47;;;17.70;99.90;;;;;;4996749;28;20037;-45
2021/06/23 06:47:19;;;;;;;10.13;6.15;;;17.60;99.90;;;;;;5010731;28;20026;-43
2021/06/23 06:49:45;;;;;;;13.60;7.20;;;17.60;99.90;;;;;;5009235;28;20029;-45
2021/06/23 06:52:10;;;;;;;10.20;6.03;;;17.70;99.90;;;;;;5010680;28;20014;-43
2021/06/23 06:54:36;;;;;;;13.77;6.82;;;17.70;99.90;;;;;;4994451;28;20065;-44
2021/06/23 06:57:02;;;;;;;13.68;6.50;;;17.70;99.90;;;;;;4991524;28;20520;-45
2021/06/23 06:59:29;;;;;;;13.27;6.55;;;17.80;99.90;;;;;;4992676;28;20037;-45
2021/06/23 07:01:55;;;;;;;8.73;6.53;;;17.70;99.90;;;;;;4990655;28;20033;-43
2021/06/23 07:04:20;;;;;;;10.48;6.28;;;17.80;99.90;;;;;;5002793;28;20405;-44
2021/06/23 07:06:46;;;;;;;8.75;6.22;;;17.80;99.90;;;;;;4997573;28;20030;-43
2021/06/23 07:09:13;;;;;;;15.18;7.10;;;17.80;99.90;;;;;;5001119;28;20113;-42
2021/06/23 07:11:39;;;;;;;10.23;6.38;;;17.90;99.90;;;;;;5010700;28;20029;-43
2021/06/23 07:14:05;;;;;;;14.88;6.72;;;18.00;99.90;;;;;;5002119;28;20154;-54
2021/06/23 07:16:30;;;;;;;9.73;5.90;;;18.10;99.90;;;;;;4991264;28;20033;-57
2021/06/23 07:18:56;;;;;;;13.55;6.00;;;18.20;99.90;;;;;;4997713;28;20034;-45
2021/06/23 07:21:22;;;;;;;10.07;6.25;;;18.40;99.90;;;;;;5011469;28;20030;-47
2021/06/23 07:23:49;;;;;;;12.23;6.78;;;18.60;99.90;;;;;;5008942;28;20161;-51
2021/06/23 07:26:15;;;;;;;6.93;5.53;;;18.80;99.90;;;;;;5011066;28;20460;-48
2021/06/23 07:31:10;;;;;;;9.07;6.35;;;19.10;99.90;;;;;;5011348;28;20123;-48
2021/06/23 07:33:37;;;;;;;10.13;6.03;;;19.20;99.90;;;;;;5012566;28;20562;-51
2021/06/23 07:38:47;;;;;;;10.70;5.43;;;19.40;99.90;;;;;;5009628;28;20033;-46
2021/06/23 07:41:13;;;;;;;9.07;5.47;;;19.70;99.90;;;;;;5002784;28;20034;-45
2021/06/23 07:43:38;;;;;;;9.45;5.97;;;19.70;99.90;;;;;;5010360;28;20051;-45
2021/06/23 07:46:05;;;;;;;8.63;5.78;;;19.80;99.90;;;;;;4994585;28;20548;-50
2021/06/23 07:48:35;;;;;;;8.98;5.20;;;19.70;99.90;;;;;;4996012;28;20396;-49
2021/06/23 07:53:57;;;;;;;9.57;5.90;;;19.90;99.90;;;;;;5013478;28;20117;-51
2021/06/23 08:02:29;;;;;;;14.80;5.82;;;21.20;99.90;;;;;;4994110;28;20413;-44
2021/06/23 08:10:07;;;;;;;7.88;4.63;;;22.20;99.90;;;;;;5012500;28;20119;-46
2021/06/23 08:15:16;;;;;;;9.13;4.78;;;22.60;98.60;;;;;;5000991;28;20031;-44
2021/06/23 08:17:42;;;;;;;10.45;5.15;;;22.00;98.80;;;;;;4995280;28;20037;-43
2021/06/23 08:20:08;;;;;;;13.73;5.40;;;21.70;99.90;;;;;;5003875;28;20042;-51
2021/06/23 08:22:33;;;;;;;7.85;5.53;;;21.30;99.90;;;;;;5000114;28;20038;-45
2021/06/23 08:24:59;;;;;;;7.57;4.88;;;20.90;99.90;;;;;;4998977;28;20595;-48
2021/06/23 08:27:25;;;;;;;7.18;4.10;;;20.80;99.90;;;;;;4992143;28;20026;-49
2021/06/23 08:29:50;;;;;;;9.32;5.32;;;20.60;99.90;;;;;;5001794;28;20030;-47
2021/06/23 08:32:16;;;;;;;11.10;6.95;;;20.70;99.90;;;;;;5010721;28;20069;-50
2021/06/23 08:34:41;;;;;;;13.15;5.57;;;20.70;99.90;;;;;;5012892;28;20404;-51
2021/06/23 08:37:07;;;;;;;7.28;5.43;;;20.70;99.90;;;;;;5008150;28;20493;-45
2021/06/23 08:39:32;;;;;;;11.48;5.65;;;20.80;99.90;;;;;;4994051;28;20050;-46
2021/06/23 08:41:58;;;;;;;5.72;5.20;;;20.70;99.90;;;;;;4995111;28;20072;-53
2021/06/23 08:44:24;;;;;;;6.22;5.60;;;20.70;99.90;;;;;;4992356;28;20425;-50
2021/06/23 08:46:50;;;;;;;10.18;5.50;;;20.80;99.90;;;;;;4995241;28;20018;-48
2021/06/23 08:49:16;;;;;;;5.10;4.60;;;21.10;99.90;;;;;;4994012;28;20552;-55
2021/06/23 08:51:43;;;;;;;4.63;4.18;;;21.40;99.90;;;;;;4995063;28;20034;-44
2021/06/23 08:54:09;;;;;;;7.45;4.32;;;21.60;99.90;;;;;;4993041;28;20125;-48
2021/06/23 08:56:35;;;;;;;8.30;5.13;;;21.70;99.90;;;;;;4996994;28;20055;-44
2021/06/23 08:59:03;;;;;;;9.93;4.70;;;21.80;99.90;;;;;;4993683;28;20050;-45
2021/06/23 09:01:30;;;;;;;6.82;4.43;;;22.10;99.70;;;;;;5005002;28;20037;-51
2021/06/23 09:04:09;;;;;;;9.15;4.25;;;22.60;99.00;;;;;;5012711;28;20750;-46
2021/06/23 09:06:47;;;;;;;8.18;4.50;;;23.10;98.40;;;;;;5000274;28;20034;-50
2021/06/23 09:09:31;;;;;;;8.30;4.47;;;23.40;97.80;;;;;;5006144;28;20048;-48
2021/06/23 09:11:59;;;;;;;5.13;3.78;;;24.00;97.10;;;;;;5013053;28;20025;-52
2021/06/23 09:14:27;;;;;;;5.15;4.63;;;24.70;96.60;;;;;;5007337;28;20038;-53
2021/06/23 09:17:19;;;;;;;10.75;7.45;;;25.10;95.60;;;;;;4992300;28;20057;-54
2021/06/23 09:19:48;;;;;;;21.13;15.52;;;25.30;94.60;;;;;;5008531;28;20556;-48
2021/06/23 09:22:39;;;;;;;4.75;4.35;;;25.20;94.90;;;;;;5013020;28;20104;-48
2021/06/23 09:25:10;;;;;;;4.60;4.13;;;25.50;94.70;;;;;;5008772;28;20026;-51
2021/06/23 09:27:45;;;;;;;5.30;4.47;;;25.70;93.90;;;;;;4995989;28;20408;-48
2021/06/23 09:30:31;;;;;;;8.23;4.50;;;25.50;94.00;;;;;;5003861;28;20149;-54
2021/06/23 09:33:23;;;;;;;9.30;4.30;;;25.50;94.40;;;;;;5011860;28;20034;-49
2021/06/23 09:36:00;;;;;;;5.60;4.55;;;25.50;94.30;;;;;;5012545;28;20033;-49
2021/06/23 09:38:32;;;;;;;6.88;4.88;;;25.50;94.20;;;;;;5012866;28;20030;-49
2021/06/23 09:41:02;;;;;;;5.50;4.90;;;25.30;94.00;;;;;;5011450;28;20017;-48
2021/06/23 09:43:41;;;;;;;4.10;3.70;;;25.00;94.20;;;;;;5011923;28;20030;-49
2021/06/23 09:46:19;;;;;;;7.72;4.55;;;24.90;94.60;;;;;;5012456;28;20057;-47
2021/06/23 09:48:46;;;;;;;7.90;4.22;;;25.00;94.70;;;;;;5012274;28;20033;-47
2021/06/23 09:51:20;;;;;;;9.18;5.20;;;25.20;94.60;;;;;;5012201;28;20036;-49
2021/06/23 09:53:47;;;;;;;4.53;4.13;;;25.20;93.90;;;;;;5012175;28;20141;-48
2021/06/23 09:56:31;;;;;;;5.75;4.65;;;24.90;94.30;;;;;;5012321;28;20022;-46
2021/06/23 09:58:58;;;;;;;5.40;4.97;;;24.60;94.70;;;;;;5012280;28;20042;-49
2021/06/23 10:01:25;;;;;;;6.00;5.10;;;24.30;95.20;;;;;;5011956;28;20026;-55
2021/06/23 10:04:05;;;;;;;8.48;4.47;;;24.20;96.00;;;;;;5011792;28;20393;-45
2021/06/23 10:06:37;;;;;;;6.65;5.70;;;24.30;95.90;;;;;;5012008;28;20026;-47
2021/06/23 10:09:13;;;;;;;4.65;4.25;;;24.30;95.50;;;;;;5012063;28;20026;-46
2021/06/23 10:11:40;;;;;;;7.20;5.38;;;24.30;95.90;;;;;;5012393;28;20057;-50
2021/06/23 10:14:07;;;;;;;5.20;4.72;;;24.20;96.20;;;;;;5010197;28;20033;-48
2021/06/23 10:16:34;;;;;;;7.22;5.35;;;24.00;96.60;;;;;;5012088;28;20418;-47
2021/06/23 10:19:01;;;;;;;9.63;5.10;;;24.00;96.70;;;;;;5011922;28;20113;-53
2021/06/23 10:21:30;;;;;;;6.80;5.95;;;24.00;96.80;;;;;;5012063;28;20083;-48
2021/06/23 10:23:57;;;;;;;10.25;5.40;;;24.00;96.40;;;;;;5011029;28;20092;-47
2021/06/23 10:26:27;;;;;;;6.82;4.53;;;23.90;96.80;;;;;;5012076;28;20034;-46
2021/06/23 10:28:54;;;;;;;6.38;4.50;;;23.70;97.30;;;;;;5011681;28;20129;-50
2021/06/23 10:31:22;;;;;;;5.80;5.00;;;23.70;97.50;;;;;;5011560;28;20033;-47
2021/06/23 10:33:48;;;;;;;5.93;4.88;;;23.60;97.10;;;;;;5011296;28;20026;-50
2021/06/23 10:36:14;;;;;;;5.97;5.47;;;23.50;97.00;;;;;;5011510;28;20037;-48
2021/06/23 10:38:42;;;;;;;7.43;6.20;;;23.50;96.90;;;;;;5011296;28;20033;-46
2021/06/23 10:41:09;;;;;;;6.57;4.70;;;23.50;96.80;;;;;;5011428;28;20026;-51
2021/06/23 10:43:35;;;;;;;9.98;6.00;;;23.70;97.10;;;;;;5011052;28;20097;-51
2021/06/23 10:46:01;;;;;;;8.95;5.70;;;23.70;96.60;;;;;;5009740;28;20085;-50
2021/06/23 10:48:26;;;;;;;8.90;4.95;;;23.60;96.70;;;;;;5011131;28;20029;-50
2021/06/23 10:50:52;;;;;;;7.55;6.68;;;23.60;97.10;;;;;;5011370;28;20030;-45
2021/06/23 10:53:32;;;;;;;10.95;5.95;;;23.50;96.90;;;;;;5011417;28;20271;-44
2021/06/23 10:55:59;;;;;;;5.75;5.32;;;23.40;97.00;;;;;;5009921;28;20030;-47
2021/06/23 10:58:32;;;;;;;9.68;4.97;;;23.50;96.90;;;;;;5009932;28;20080;-47
2021/06/23 11:01:14;;;;;;;8.10;7.30;;;23.70;97.10;;;;;;5009614;28;20022;-48
2021/06/23 11:03:59;;;;;;;6.63;5.47;;;23.80;96.50;;;;;;5010622;28;20365;-47
2021/06/23 11:06:41;;;;;;;9.18;5.28;;;23.70;97.00;;;;;;5010363;28;20030;-53
2021/06/23 11:09:28;;;;;;;7.10;5.05;;;23.80;97.40;;;;;;5010728;28;20032;-51
2021/06/23 11:11:55;;;;;;;8.32;5.32;;;24.10;97.00;;;;;;5009950;28;20105;-43
2021/06/23 11:14:22;;;;;;;6.38;4.90;;;24.20;96.10;;;;;;5010413;28;20033;-54
2021/06/23 11:16:48;;;;;;;7.32;6.45;;;24.30;95.40;;;;;;5010654;28;20024;-46
2021/06/23 11:19:14;;;;;;;8.88;6.40;;;24.20;95.60;;;;;;5010666;28;20451;-48
2021/06/23 11:21:42;;;;;;;9.55;5.45;;;24.00;95.50;;;;;;5010251;28;20405;-51
2021/06/23 11:24:15;;;;;;;5.40;5.00;;;23.90;96.30;;;;;;5010282;28;20022;-46
2021/06/23 11:26:40;;;;;;;6.18;4.10;;;23.80;96.00;;;;;;5010747;28;20489;-44
2021/06/23 11:29:08;;;;;;;3.78;3.50;;;23.80;95.50;;;;;;5010682;28;20038;-49
2021/06/23 11:31:46;;;;;;;5.35;3.63;;;23.80;95.00;;;;;;5009113;28;20026;-47
2021/06/23 11:34:43;;;;;;;4.88;4.47;;;23.90;94.90;;;;;;5010016;28;20117;-52
2021/06/23 11:37:11;;;;;;;7.47;3.97;;;24.10;95.50;;;;;;5010146;28;20080;-48
2021/06/23 11:39:37;;;;;;;3.92;3.10;;;24.10;95.50;;;;;;5010435;28;20018;-50
2021/06/23 11:42:04;;;;;;;5.00;4.32;;;24.20;94.30;;;;;;5010440;28;20072;-50
2021/06/23 11:44:30;;;;;;;6.32;3.80;;;24.20;94.90;;;;;;5009736;28;20038;-48
2021/06/23 11:47:01;;;;;;;3.63;3.33;;;24.30;95.70;;;;;;5010391;28;20389;-52
2021/06/23 11:49:26;;;;;;;24.75;20.42;;;24.40;96.80;;;;;;5010227;28;20088;-48
2021/06/23 11:51:52;;;;;;;9.73;5.05;;;24.50;95.60;;;;;;5010366;28;20029;-47
2021/06/23 11:54:17;;;;;;;4.88;4.40;;;24.60;95.30;;;;;;5009991;28;20026;-49
2021/06/23 11:56:43;;;;;;;4.97;4.32;;;24.60;95.80;;;;;;5009910;28;20030;-46
2021/06/23 11:59:08;;;;;;;6.47;4.78;;;24.70;95.00;;;;;;5010115;28;20022;-52
2021/06/23 12:01:34;;;;;;;4.13;3.65;;;24.60;94.90;;;;;;5009404;28;20388;-46
2021/06/23 12:04:01;;;;;;;4.43;3.97;;;24.30;95.00;;;;;;5009926;28;20022;-53
2021/06/23 12:06:27;;;;;;;5.22;4.35;;;23.90;96.10;;;;;;5009903;28;20030;-48
2021/06/23 12:08:53;;;;;;;4.20;3.80;;;23.80;95.80;;;;;;5008606;28;20495;-50
2021/06/23 12:11:19;;;;;;;9.02;4.63;;;23.70;96.20;;;;;;5009785;28;20034;-47
2021/06/23 12:13:44;;;;;;;4.35;3.95;;;23.70;96.00;;;;;;5009865;28;20028;-50
2021/06/23 12:16:10;;;;;;;6.65;5.22;;;23.90;95.30;;;;;;5010406;28;20026;-53
2021/06/23 12:18:36;;;;;;;3.88;3.58;;;24.10;94.80;;;;;;5012083;28;20392;-51
2021/06/23 12:21:02;;;;;;;4.32;3.17;;;24.10;96.20;;;;;;5013655;28;20038;-48
2021/06/23 12:23:27;;;;;;;3.28;2.97;;;24.20;96.00;;;;;;5013063;28;20026;-49
2021/06/23 12:25:53;;;;;;;4.90;3.35;;;24.40;93.80;;;;;;5013634;28;20485;-45
2021/06/23 12:28:19;;;;;;;3.53;3.08;;;24.40;94.00;;;;;;5013401;28;20034;-48
2021/06/23 12:30:46;;;;;;;3.72;2.70;;;24.40;94.30;;;;;;5013379;28;20034;-50
2021/06/23 12:33:12;;;;;;;2.78;2.58;;;24.30;94.60;;;;;;5013340;28;20033;-48
2021/06/23 12:35:40;;;;;;;3.95;3.08;;;24.40;95.90;;;;;;5012831;28;20029;-52
2021/06/23 12:38:07;;;;;;;3.70;3.50;;;24.40;95.80;;;;;;5013368;28;20563;-47
2021/06/23 12:40:33;;;;;;;3.22;2.97;;;24.30;96.70;;;;;;5013266;28;20018;-48
2021/06/23 12:42:59;;;;;;;8.07;5.28;;;24.40;96.10;;;;;;5013724;28;20030;-49
2021/06/23 12:45:24;;;;;;;4.80;4.07;;;24.60;94.80;;;;;;5012580;28;20040;-55
2021/06/23 12:47:50;;;;;;;6.63;3.95;;;24.50;94.80;;;;;;5013345;28;20408;-49
2021/06/23 12:50:19;;;;;;;3.58;3.28;;;24.40;95.30;;;;;;5012952;28;20392;-47
2021/06/23 12:52:46;;;;;;;3.78;3.45;;;24.30;95.60;;;;;;5012946;28;20509;-51
2021/06/23 12:55:12;;;;;;;4.40;3.33;;;24.20;96.10;;;;;;5012711;28;20030;-52
2021/06/23 12:57:38;;;;;;;6.80;3.20;;;24.20;96.50;;;;;;5012690;28;20026;-48
2021/06/23 13:00:07;;;;;;;4.10;2.90;;;24.20;96.40;;;;;;5013339;28;20468;-52
2021/06/23 13:02:35;;;;;;;4.45;4.03;;;24.20;95.90;;;;;;5012473;28;20212;-48
2021/06/23 13:05:01;;;;;;;3.83;3.50;;;24.40;95.40;;;;;;5012711;28;20101;-50
2021/06/23 13:07:26;;;;;;;3.88;3.55;;;24.60;94.70;;;;;;5012718;28;20106;-49